Kota Kinabalu, Malaysia
Current Conditions -  °F | °C
As of 5:30 PM on Friday 28 Nov 2014 (Local Time) from WBKK Reporting Station
Light Rain Light Rain  
Wind Chill: 79°   Ceiling: 13000
Heat Index: 83°   Visibility: 5mi
Dew Point: 79°   Wind: 6mph
Humidity: 100%   Direction: 120°ESE
Pressure: 29.74"   Gusts: NA
Location:  5.97°N, 116.07°E
Report Text: WBKK 280930Z 12005KT 080V160 8000 -RA FEW013 FEW016CB SCT030 BKN130 26/26 Q1007 RETSRA NOSIG
Loading
Personal Weather Stations






























Interactive Weather Map New forecast layout! Learn more

10-Day Weather Forecast

Advertisements
Track Severe Weather on mobile